sensor_id;sensor_type;location;lat;lon;timestamp;pressure;altitude;pressure_sealevel;temperature;humidity
82033;BME280;71595;52.180;4.512;2023-12-28T00:00:14;100733.75;;;10.54;81.38
82033;BME280;71595;52.180;4.512;2023-12-28T00:02:39;100748.56;;;10.49;81.36
82033;BME280;71595;52.180;4.512;2023-12-28T00:05:06;100740.06;;;10.54;81.23
82033;BME280;71595;52.180;4.512;2023-12-28T00:07:31;100753.63;;;10.59;80.56
82033;BME280;71595;52.180;4.512;2023-12-28T00:09:57;100730.63;;;10.55;80.57
82033;BME280;71595;52.180;4.512;2023-12-28T00:12:22;100728.91;;;10.51;81.14
82033;BME280;71595;52.180;4.512;2023-12-28T00:14:48;100729.00;;;10.54;81.03
82033;BME280;71595;52.180;4.512;2023-12-28T00:17:13;100740.19;;;10.58;80.63
82033;BME280;71595;52.180;4.512;2023-12-28T00:19:39;100728.34;;;10.57;80.53
82033;BME280;71595;52.180;4.512;2023-12-28T00:22:04;100741.91;;;10.63;80.33
82033;BME280;71595;52.180;4.512;2023-12-28T00:24:29;100734.09;;;10.65;79.97
82033;BME280;71595;52.180;4.512;2023-12-28T00:26:55;100734.91;;;10.65;79.70
82033;BME280;71595;52.180;4.512;2023-12-28T00:29:20;100732.59;;;10.67;79.95
82033;BME280;71595;52.180;4.512;2023-12-28T00:31:45;100741.22;;;10.66;80.07
82033;BME280;71595;52.180;4.512;2023-12-28T00:34:11;100741.91;;;10.63;80.16
82033;BME280;71595;52.180;4.512;2023-12-28T00:36:36;100734.56;;;10.67;80.04
82033;BME280;71595;52.180;4.512;2023-12-28T00:39:01;100733.16;;;10.60;80.00
82033;BME280;71595;52.180;4.512;2023-12-28T00:41:27;100736.16;;;10.55;80.20
82033;BME280;71595;52.180;4.512;2023-12-28T00:43:52;100731.31;;;10.52;80.41
82033;BME280;71595;52.180;4.512;2023-12-28T00:46:17;100739.50;;;10.49;80.37
82033;BME280;71595;52.180;4.512;2023-12-28T00:48:43;100742.38;;;10.52;80.13
82033;BME280;71595;52.180;4.512;2023-12-28T00:51:08;100743.28;;;10.56;80.01
82033;BME280;71595;52.180;4.512;2023-12-28T00:53:33;100742.59;;;10.59;79.66
82033;BME280;71595;52.180;4.512;2023-12-28T00:55:59;100748.25;;;10.63;79.53
82033;BME280;71595;52.180;4.512;2023-12-28T00:58:24;100740.50;;;10.56;79.98
82033;BME280;71595;52.180;4.512;2023-12-28T01:00:49;100730.97;;;10.54;80.20
82033;BME280;71595;52.180;4.512;2023-12-28T01:03:18;100727.19;;;10.58;79.57
82033;BME280;71595;52.180;4.512;2023-12-28T01:05:44;100733.63;;;10.50;79.94
82033;BME280;71595;52.180;4.512;2023-12-28T01:08:12;100742.25;;;10.49;79.75
82033;BME280;71595;52.180;4.512;2023-12-28T01:10:38;100741.44;;;10.48;79.69
82033;BME280;71595;52.180;4.512;2023-12-28T01:13:03;100738.22;;;10.46;79.68
82033;BME280;71595;52.180;4.512;2023-12-28T01:15:28;100744.41;;;10.43;79.77
82033;BME280;71595;52.180;4.512;2023-12-28T01:17:54;100754.50;;;10.39;80.15
82033;BME280;71595;52.180;4.512;2023-12-28T01:20:19;100755.00;;;10.41;79.85
82033;BME280;71595;52.180;4.512;2023-12-28T01:22:44;100735.19;;;10.39;79.99
82033;BME280;71595;52.180;4.512;2023-12-28T01:25:13;100742.06;;;10.33;80.04
82033;BME280;71595;52.180;4.512;2023-12-28T01:27:38;100738.47;;;10.32;80.14
82033;BME280;71595;52.180;4.512;2023-12-28T01:30:04;100737.69;;;10.32;79.87
82033;BME280;71595;52.180;4.512;2023-12-28T01:32:30;100732.84;;;10.29;80.31
82033;BME280;71595;52.180;4.512;2023-12-28T01:34:55;100743.22;;;10.32;79.96
82033;BME280;71595;52.180;4.512;2023-12-28T01:37:21;100748.72;;;10.32;80.19
82033;BME280;71595;52.180;4.512;2023-12-28T01:39:46;100759.16;;;10.26;80.38
82033;BME280;71595;52.180;4.512;2023-12-28T01:42:11;100751.00;;;10.30;79.87
82033;BME280;71595;52.180;4.512;2023-12-28T01:44:37;100758.81;;;10.28;80.34
82033;BME280;71595;52.180;4.512;2023-12-28T01:47:02;100762.03;;;10.30;79.99
82033;BME280;71595;52.180;4.512;2023-12-28T01:49:28;100757.69;;;10.29;80.03
82033;BME280;71595;52.180;4.512;2023-12-28T01:51:53;100771.81;;;10.27;80.23
82033;BME280;71595;52.180;4.512;2023-12-28T01:54:18;100774.44;;;10.23;80.05
82033;BME280;71595;52.180;4.512;2023-12-28T01:56:44;100764.06;;;10.20;80.05
82033;BME280;71595;52.180;4.512;2023-12-28T01:59:10;100766.84;;;10.20;80.08
82033;BME280;71595;52.180;4.512;2023-12-28T02:01:36;100760.97;;;10.22;80.16
82033;BME280;71595;52.180;4.512;2023-12-28T02:04:01;100761.47;;;10.24;80.01
82033;BME280;71595;52.180;4.512;2023-12-28T02:06:28;100771.81;;;10.27;79.88
82033;BME280;71595;52.180;4.512;2023-12-28T02:08:53;100768.47;;;10.21;79.99
82033;BME280;71595;52.180;4.512;2023-12-28T02:11:18;100765.69;;;10.21;79.92
82033;BME280;71595;52.180;4.512;2023-12-28T02:13:44;100767.50;;;10.17;80.10
82033;BME280;71595;52.180;4.512;2023-12-28T02:16:13;100762.94;;;10.21;79.52
82033;BME280;71595;52.180;4.512;2023-12-28T02:18:43;100770.75;;;10.19;79.58
82033;BME280;71595;52.180;4.512;2023-12-28T02:21:12;100755.34;;;10.18;79.62
82033;BME280;71595;52.180;4.512;2023-12-28T02:23:38;100752.56;;;10.18;79.65
82033;BME280;71595;52.180;4.512;2023-12-28T02:26:03;100745.66;;;10.12;79.65
82033;BME280;71595;52.180;4.512;2023-12-28T02:28:28;100744.19;;;10.15;79.58
82033;BME280;71595;52.180;4.512;2023-12-28T02:30:54;100756.00;;;10.15;79.16
82033;BME280;71595;52.180;4.512;2023-12-28T02:33:25;100756.22;;;10.10;79.18
82033;BME280;71595;52.180;4.512;2023-12-28T02:36:07;100758.31;;;10.13;78.86
82033;BME280;71595;52.180;4.512;2023-12-28T02:38:36;100752.13;;;10.16;78.44
82033;BME280;71595;52.180;4.512;2023-12-28T02:41:03;100784.91;;;10.18;78.12
82033;BME280;71595;52.180;4.512;2023-12-28T02:43:29;100755.59;;;10.25;77.13
82033;BME280;71595;52.180;4.512;2023-12-28T02:45:54;100765.81;;;10.25;77.29
82033;BME280;71595;52.180;4.512;2023-12-28T02:48:20;100766.66;;;10.25;77.14
82033;BME280;71595;52.180;4.512;2023-12-28T02:50:45;100773.75;;;10.26;77.24
82033;BME280;71595;52.180;4.512;2023-12-28T02:53:11;100782.53;;;10.29;77.06
82033;BME280;71595;52.180;4.512;2023-12-28T02:55:36;100791.59;;;10.29;76.94
82033;BME280;71595;52.180;4.512;2023-12-28T02:58:02;100763.00;;;10.34;76.49
82033;BME280;71595;52.180;4.512;2023-12-28T03:00:27;100757.69;;;10.29;76.78
82033;BME280;71595;52.180;4.512;2023-12-28T03:02:53;100764.34;;;10.28;77.11
82033;BME280;71595;52.180;4.512;2023-12-28T03:05:18;100766.75;;;10.29;76.85
82033;BME280;71595;52.180;4.512;2023-12-28T03:07:44;100778.47;;;10.26;77.12
82033;BME280;71595;52.180;4.512;2023-12-28T03:10:10;100765.03;;;10.24;77.15
82033;BME280;71595;52.180;4.512;2023-12-28T03:12:36;100763.22;;;10.29;76.59
82033;BME280;71595;52.180;4.512;2023-12-28T03:15:02;100754.25;;;10.32;76.43
82033;BME280;71595;52.180;4.512;2023-12-28T03:17:28;100757.94;;;10.36;76.54
82033;BME280;71595;52.180;4.512;2023-12-28T03:19:56;100748.06;;;10.35;76.66
82033;BME280;71595;52.180;4.512;2023-12-28T03:22:21;100748.06;;;10.35;76.57
82033;BME280;71595;52.180;4.512;2023-12-28T03:24:47;100745.78;;;10.37;76.26
82033;BME280;71595;52.180;4.512;2023-12-28T03:27:12;100756.81;;;10.37;76.32
82033;BME280;71595;52.180;4.512;2023-12-28T03:29:37;100750.00;;;10.34;76.31
82033;BME280;71595;52.180;4.512;2023-12-28T03:32:03;100734.72;;;10.37;76.49
82033;BME280;71595;52.180;4.512;2023-12-28T03:34:28;100734.72;;;10.37;76.13
82033;BME280;71595;52.180;4.512;2023-12-28T03:36:55;100739.63;;;10.31;76.56
82033;BME280;71595;52.180;4.512;2023-12-28T03:39:21;100744.00;;;10.32;76.43
82033;BME280;71595;52.180;4.512;2023-12-28T03:41:49;100742.38;;;10.31;76.17
82033;BME280;71595;52.180;4.512;2023-12-28T03:44:14;100735.25;;;10.30;76.32
82033;BME280;71595;52.180;4.512;2023-12-28T03:46:40;100747.91;;;10.31;76.12
82033;BME280;71595;52.180;4.512;2023-12-28T03:49:05;100742.22;;;10.36;76.21
82033;BME280;71595;52.180;4.512;2023-12-28T03:51:31;100728.25;;;10.33;76.31
82033;BME280;71595;52.180;4.512;2023-12-28T03:53:56;100743.06;;;10.28;76.70
82033;BME280;71595;52.180;4.512;2023-12-28T03:56:23;100737.69;;;10.32;76.22
82033;BME280;71595;52.180;4.512;2023-12-28T03:58:49;100730.00;;;10.37;75.83
82033;BME280;71595;52.180;4.512;2023-12-28T04:01:16;100733.59;;;10.38;75.74
82033;BME280;71595;52.180;4.512;2023-12-28T04:03:42;100728.75;;;10.35;76.08
82033;BME280;71595;52.180;4.512;2023-12-28T04:06:07;100743.22;;;10.32;76.28
82033;BME280;71595;52.180;4.512;2023-12-28T04:08:33;100738.28;;;10.37;76.00
82033;BME280;71595;52.180;4.512;2023-12-28T04:10:58;100746.22;;;10.39;75.80
82033;BME280;71595;52.180;4.512;2023-12-28T04:13:23;100738.88;;;10.43;75.43
82033;BME280;71595;52.180;4.512;2023-12-28T04:15:49;100729.22;;;10.37;75.71
82033;BME280;71595;52.180;4.512;2023-12-28T04:18:14;100740.13;;;10.33;75.81
82033;BME280;71595;52.180;4.512;2023-12-28T04:20:42;100734.72;;;10.37;75.62
82033;BME280;71595;52.180;4.512;2023-12-28T04:23:07;100746.72;;;10.41;75.50
82033;BME280;71595;52.180;4.512;2023-12-28T04:25:32;100741.31;;;10.45;74.81
82033;BME280;71595;52.180;4.512;2023-12-28T04:27:58;100757.75;;;10.41;75.26
82033;BME280;71595;52.180;4.512;2023-12-28T04:30:23;100758.44;;;10.38;75.07
82033;BME280;71595;52.180;4.512;2023-12-28T04:32:48;100754.50;;;10.39;75.28
82033;BME280;71595;52.180;4.512;2023-12-28T04:35:14;100760.53;;;10.41;75.08
82033;BME280;71595;52.180;4.512;2023-12-28T04:37:39;100764.69;;;10.47;74.51
82033;BME280;71595;52.180;4.512;2023-12-28T04:40:04;100756.84;;;10.49;74.59
82033;BME280;71595;52.180;4.512;2023-12-28T04:42:30;100761.91;;;10.47;74.76
82033;BME280;71595;52.180;4.512;2023-12-28T04:44:55;100753.41;;;10.52;74.56
82033;BME280;71595;52.180;4.512;2023-12-28T04:47:20;100759.00;;;10.43;75.20
82033;BME280;71595;52.180;4.512;2023-12-28T04:49:46;100754.78;;;10.46;74.87
82033;BME280;71595;52.180;4.512;2023-12-28T04:52:11;100762.72;;;10.48;74.19
82033;BME280;71595;52.180;4.512;2023-12-28T04:54:39;100755.03;;;10.53;74.25
82033;BME280;71595;52.180;4.512;2023-12-28T04:57:05;100771.22;;;10.55;74.41
82033;BME280;71595;52.180;4.512;2023-12-28T04:59:30;100776.41;;;10.56;74.34
82033;BME280;71595;52.180;4.512;2023-12-28T05:01:55;100746.53;;;10.58;74.17
82033;BME280;71595;52.180;4.512;2023-12-28T05:04:21;100760.06;;;10.51;74.32
82033;BME280;71595;52.180;4.512;2023-12-28T05:06:46;100752.72;;;10.55;74.30
82033;BME280;71595;52.180;4.512;2023-12-28T05:09:12;100742.47;;;10.56;74.14
82033;BME280;71595;52.180;4.512;2023-12-28T05:11:37;100747.09;;;10.64;73.77
82033;BME280;71595;52.180;4.512;2023-12-28T05:14:02;100744.94;;;10.70;73.27
82033;BME280;71595;52.180;4.512;2023-12-28T05:16:28;100744.00;;;10.66;73.60
82033;BME280;71595;52.180;4.512;2023-12-28T05:18:53;100749.06;;;10.64;73.88
82033;BME280;71595;52.180;4.512;2023-12-28T05:21:18;100749.84;;;10.64;73.83
82033;BME280;71595;52.180;4.512;2023-12-28T05:23:44;100747.91;;;10.65;73.31
82033;BME280;71595;52.180;4.512;2023-12-28T05:26:10;100735.34;;;10.67;73.20
82033;BME280;71595;52.180;4.512;2023-12-28T05:28:35;100729.97;;;10.71;73.05
82033;BME280;71595;52.180;4.512;2023-12-28T05:31:00;100726.72;;;10.69;73.37
82033;BME280;71595;52.180;4.512;2023-12-28T05:33:26;100731.34;;;10.65;73.57
82033;BME280;71595;52.180;4.512;2023-12-28T05:35:51;100743.66;;;10.67;73.21
82033;BME280;71595;52.180;4.512;2023-12-28T05:38:16;100740.09;;;10.67;73.41
82033;BME280;71595;52.180;4.512;2023-12-28T05:40:43;100750.44;;;10.70;73.57
82033;BME280;71595;52.180;4.512;2023-12-28T05:43:10;100743.53;;;10.64;73.83
82033;BME280;71595;52.180;4.512;2023-12-28T05:45:35;100745.16;;;10.65;73.54
82033;BME280;71595;52.180;4.512;2023-12-28T05:48:01;100755.53;;;10.68;73.01
82033;BME280;71595;52.180;4.512;2023-12-28T05:50:26;100748.38;;;10.67;73.37
82033;BME280;71595;52.180;4.512;2023-12-28T05:52:51;100752.97;;;10.63;73.61
82033;BME280;71595;52.180;4.512;2023-12-28T05:55:17;100751.22;;;10.58;73.32
82033;BME280;71595;52.180;4.512;2023-12-28T05:57:42;100760.09;;;10.64;73.74
82033;BME280;71595;52.180;4.512;2023-12-28T06:00:07;100745.84;;;10.61;73.95
82033;BME280;71595;52.180;4.512;2023-12-28T06:02:35;100775.88;;;10.63;73.55
82033;BME280;71595;52.180;4.512;2023-12-28T06:05:00;100776.00;;;10.67;73.43
82033;BME280;71595;52.180;4.512;2023-12-28T06:07:26;100765.06;;;10.70;73.55
82033;BME280;71595;52.180;4.512;2023-12-28T06:09:51;100787.38;;;10.65;73.77
82033;BME280;71595;52.180;4.512;2023-12-28T06:12:16;100794.19;;;10.68;73.75
82033;BME280;71595;52.180;4.512;2023-12-28T06:14:42;100790.41;;;10.72;73.27
82033;BME280;71595;52.180;4.512;2023-12-28T06:17:07;100789.56;;;10.72;73.29
82033;BME280;71595;52.180;4.512;2023-12-28T06:19:32;100795.09;;;10.72;73.38
82033;BME280;71595;52.180;4.512;2023-12-28T06:21:58;100796.72;;;10.73;73.10
82033;BME280;71595;52.180;4.512;2023-12-28T06:24:24;100822.25;;;10.70;73.23
82033;BME280;71595;52.180;4.512;2023-12-28T06:26:49;100801.97;;;10.66;73.47
82033;BME280;71595;52.180;4.512;2023-12-28T06:29:15;100794.41;;;10.75;73.18
82033;BME280;71595;52.180;4.512;2023-12-28T06:31:41;100810.31;;;10.78;72.82
82033;BME280;71595;52.180;4.512;2023-12-28T06:34:07;100790.63;;;10.79;72.99
82033;BME280;71595;52.180;4.512;2023-12-28T06:36:32;100797.78;;;10.81;73.07
82033;BME280;71595;52.180;4.512;2023-12-28T06:38:59;100802.50;;;10.80;73.06
82033;BME280;71595;52.180;4.512;2023-12-28T06:41:25;100803.19;;;10.77;73.52
82033;BME280;71595;52.180;4.512;2023-12-28T06:43:51;100817.44;;;10.79;73.11
82033;BME280;71595;52.180;4.512;2023-12-28T06:46:17;100799.41;;;10.82;72.74
82033;BME280;71595;52.180;4.512;2023-12-28T06:48:43;100793.03;;;10.81;72.95
82033;BME280;71595;52.180;4.512;2023-12-28T06:51:09;100795.25;;;10.75;73.54
82033;BME280;71595;52.180;4.512;2023-12-28T06:53:35;100803.97;;;10.77;72.99
82033;BME280;71595;52.180;4.512;2023-12-28T06:56:00;100806.63;;;10.74;73.15
82033;BME280;71595;52.180;4.512;2023-12-28T06:58:26;100814.25;;;10.77;73.33
82033;BME280;71595;52.180;4.512;2023-12-28T07:00:51;100799.25;;;10.78;72.91
82033;BME280;71595;52.180;4.512;2023-12-28T07:03:16;100812.16;;;10.74;73.22
82033;BME280;71595;52.180;4.512;2023-12-28T07:05:42;100790.06;;;10.74;73.22
82033;BME280;71595;52.180;4.512;2023-12-28T07:08:08;100815.03;;;10.77;72.94
82033;BME280;71595;52.180;4.512;2023-12-28T07:10:33;100809.84;;;10.76;72.65
82033;BME280;71595;52.180;4.512;2023-12-28T07:12:58;100805.25;;;10.80;72.51
82033;BME280;71595;52.180;4.512;2023-12-28T07:15:24;100815.50;;;10.79;72.47
82033;BME280;71595;52.180;4.512;2023-12-28T07:17:50;100813.06;;;10.78;72.58
82033;BME280;71595;52.180;4.512;2023-12-28T07:20:15;100816.06;;;10.73;72.85
82033;BME280;71595;52.180;4.512;2023-12-28T07:22:41;100811.00;;;10.75;73.09
82033;BME280;71595;52.180;4.512;2023-12-28T07:25:06;100832.28;;;10.74;73.27
82033;BME280;71595;52.180;4.512;2023-12-28T07:27:34;100832.03;;;10.67;73.64
82033;BME280;71595;52.180;4.512;2023-12-28T07:30:00;100832.97;;;10.71;73.22
82033;BME280;71595;52.180;4.512;2023-12-28T07:32:25;100838.16;;;10.73;73.76
82033;BME280;71595;52.180;4.512;2023-12-28T07:34:53;100847.25;;;10.73;73.53
82033;BME280;71595;52.180;4.512;2023-12-28T07:37:18;100846.66;;;10.68;73.61
82033;BME280;71595;52.180;4.512;2023-12-28T07:39:43;100841.59;;;10.70;73.61
82033;BME280;71595;52.180;4.512;2023-12-28T07:42:09;100857.22;;;10.66;73.32
82033;BME280;71595;52.180;4.512;2023-12-28T07:44:34;100840.19;;;10.64;73.35
82033;BME280;71595;52.180;4.512;2023-12-28T07:47:00;100850.91;;;10.65;73.74
82033;BME280;71595;52.180;4.512;2023-12-28T07:49:26;100858.25;;;10.61;73.68
82033;BME280;71595;52.180;4.512;2023-12-28T07:51:51;100850.78;;;10.61;73.81
82033;BME280;71595;52.180;4.512;2023-12-28T07:54:16;100849.16;;;10.60;73.64
82033;BME280;71595;52.180;4.512;2023-12-28T07:56:42;100852.88;;;10.65;73.72
82033;BME280;71595;52.180;4.512;2023-12-28T07:59:07;100849.63;;;10.63;73.66
82033;BME280;71595;52.180;4.512;2023-12-28T08:01:34;100882.28;;;10.60;73.73
82033;BME280;71595;52.180;4.512;2023-12-28T08:04:00;100864.09;;;10.59;73.51
82033;BME280;71595;52.180;4.512;2023-12-28T08:06:27;100876.44;;;10.62;73.34
82033;BME280;71595;52.180;4.512;2023-12-28T08:08:52;100873.00;;;10.65;73.29
82033;BME280;71595;52.180;4.512;2023-12-28T08:11:19;100861.81;;;10.61;73.58
82033;BME280;71595;52.180;4.512;2023-12-28T08:13:44;100885.06;;;10.60;73.33
82033;BME280;71595;52.180;4.512;2023-12-28T08:16:09;100881.00;;;10.58;73.79
82033;BME280;71595;52.180;4.512;2023-12-28T08:18:35;100890.25;;;10.62;73.42
82033;BME280;71595;52.180;4.512;2023-12-28T08:21:01;100891.03;;;10.63;73.83
82033;BME280;71595;52.180;4.512;2023-12-28T08:23:26;100899.22;;;10.59;73.69
82033;BME280;71595;52.180;4.512;2023-12-28T08:25:51;100882.50;;;10.55;73.69
82033;BME280;71595;52.180;4.512;2023-12-28T08:28:17;100902.75;;;10.59;73.77
82033;BME280;71595;52.180;4.512;2023-12-28T08:30:42;100883.91;;;10.61;73.81
82033;BME280;71595;52.180;4.512;2023-12-28T08:33:07;100894.03;;;10.57;73.87
82033;BME280;71595;52.180;4.512;2023-12-28T08:35:33;100887.47;;;10.62;73.52
82033;BME280;71595;52.180;4.512;2023-12-28T08:37:58;100901.16;;;10.58;73.53
82033;BME280;71595;52.180;4.512;2023-12-28T08:40:23;100901.63;;;10.60;73.43
82033;BME280;71595;52.180;4.512;2023-12-28T08:42:49;100913.00;;;10.59;73.64
82033;BME280;71595;52.180;4.512;2023-12-28T08:45:14;100909.66;;;10.53;74.12
82033;BME280;71595;52.180;4.512;2023-12-28T08:47:39;100898.88;;;10.60;73.45
82033;BME280;71595;52.180;4.512;2023-12-28T08:50:05;100918.19;;;10.60;73.65
82033;BME280;71595;52.180;4.512;2023-12-28T08:52:30;100916.56;;;10.59;74.20
82033;BME280;71595;52.180;4.512;2023-12-28T08:54:56;100907.16;;;10.60;73.87
82033;BME280;71595;52.180;4.512;2023-12-28T08:57:21;100914.47;;;10.56;74.44
82033;BME280;71595;52.180;4.512;2023-12-28T08:59:46;100921.63;;;10.57;74.51
82033;BME280;71595;52.180;4.512;2023-12-28T09:02:12;100918.28;;;10.52;75.54
82033;BME280;71595;52.180;4.512;2023-12-28T09:04:37;100932.91;;;10.52;76.08
82033;BME280;71595;52.180;4.512;2023-12-28T09:07:04;100931.75;;;10.53;75.82
82033;BME280;71595;52.180;4.512;2023-12-28T09:09:29;100923.66;;;10.48;76.14
82033;BME280;71595;52.180;4.512;2023-12-28T09:11:55;100927.25;;;10.49;76.26
82033;BME280;71595;52.180;4.512;2023-12-28T09:14:21;100923.88;;;10.43;75.82
82033;BME280;71595;52.180;4.512;2023-12-28T09:16:47;100940.44;;;10.43;75.70
82033;BME280;71595;52.180;4.512;2023-12-28T09:19:13;100933.56;;;10.49;75.47
82033;BME280;71595;52.180;4.512;2023-12-28T09:21:38;100948.31;;;10.53;75.42
82033;BME280;71595;52.180;4.512;2023-12-28T09:24:04;100946.03;;;10.55;75.12
82033;BME280;71595;52.180;4.512;2023-12-28T09:26:29;100950.66;;;10.64;74.50
82033;BME280;71595;52.180;4.512;2023-12-28T09:28:55;100943.19;;;10.64;74.69
82033;BME280;71595;52.180;4.512;2023-12-28T09:31:20;100951.97;;;10.66;74.16
82033;BME280;71595;52.180;4.512;2023-12-28T09:33:45;100953.22;;;10.69;74.61
82033;BME280;71595;52.180;4.512;2023-12-28T09:36:11;100946.44;;;10.66;74.19
82033;BME280;71595;52.180;4.512;2023-12-28T09:38:40;100950.13;;;10.70;74.48
82033;BME280;71595;52.180;4.512;2023-12-28T09:41:13;100967.31;;;10.76;73.90
82033;BME280;71595;52.180;4.512;2023-12-28T09:43:54;100940.34;;;10.73;74.11
82033;BME280;71595;52.180;4.512;2023-12-28T09:46:20;100957.88;;;10.77;74.57
82033;BME280;71595;52.180;4.512;2023-12-28T09:48:46;100963.75;;;10.75;74.74
82033;BME280;71595;52.180;4.512;2023-12-28T09:51:12;100971.69;;;10.77;74.58
82033;BME280;71595;52.180;4.512;2023-12-28T09:53:38;100965.84;;;10.78;74.79
82033;BME280;71595;52.180;4.512;2023-12-28T09:56:04;100964.75;;;10.71;75.38
82033;BME280;71595;52.180;4.512;2023-12-28T09:58:33;100963.13;;;10.70;75.93
82033;BME280;71595;52.180;4.512;2023-12-28T10:01:00;100950.66;;;10.64;76.62
82033;BME280;71595;52.180;4.512;2023-12-28T10:03:26;100960.44;;;10.61;77.95
82033;BME280;71595;52.180;4.512;2023-12-28T10:05:52;100976.88;;;10.57;78.14
82033;BME280;71595;52.180;4.512;2023-12-28T10:08:17;100976.63;;;10.50;78.52
82033;BME280;71595;52.180;4.512;2023-12-28T10:10:44;100962.31;;;10.48;79.00
82033;BME280;71595;52.180;4.512;2023-12-28T10:13:16;100972.91;;;10.46;78.70
82033;BME280;71595;52.180;4.512;2023-12-28T10:15:42;100990.59;;;10.45;77.90
82033;BME280;71595;52.180;4.512;2023-12-28T10:18:08;100993.84;;;10.47;77.79
82033;BME280;71595;52.180;4.512;2023-12-28T10:20:34;100959.22;;;10.50;77.02
82033;BME280;71595;52.180;4.512;2023-12-28T10:22:59;100969.72;;;10.56;76.59
82033;BME280;71595;52.180;4.512;2023-12-28T10:25:26;100965.56;;;10.50;76.24
82033;BME280;71595;52.180;4.512;2023-12-28T10:27:52;100964.91;;;10.53;76.18
82033;BME280;71595;52.180;4.512;2023-12-28T10:30:20;100960.75;;;10.59;75.60
82033;BME280;71595;52.180;4.512;2023-12-28T10:32:46;100976.31;;;10.64;74.90
82033;BME280;71595;52.180;4.512;2023-12-28T10:35:12;100963.81;;;10.67;74.52
82033;BME280;71595;52.180;4.512;2023-12-28T10:37:40;100969.59;;;10.74;74.13
82033;BME280;71595;52.180;4.512;2023-12-28T10:40:13;100953.63;;;10.79;74.07
82033;BME280;71595;52.180;4.512;2023-12-28T10:43:05;100976.53;;;10.80;73.71
82033;BME280;71595;52.180;4.512;2023-12-28T10:45:32;100967.81;;;10.90;72.91
82033;BME280;71595;52.180;4.512;2023-12-28T10:50:38;100979.69;;;10.91;73.11
82033;BME280;71595;52.180;4.512;2023-12-28T10:56:20;100964.94;;;10.87;73.21
82033;BME280;71595;52.180;4.512;2023-12-28T10:59:00;100966.69;;;10.91;72.37
82033;BME280;71595;52.180;4.512;2023-12-28T11:01:39;100963.94;;;10.91;72.58
82033;BME280;71595;52.180;4.512;2023-12-28T11:06:46;100979.03;;;10.94;72.95
82033;BME280;71595;52.180;4.512;2023-12-28T11:09:13;100973.63;;;10.97;72.31
82033;BME280;71595;52.180;4.512;2023-12-28T11:11:43;100959.94;;;11.01;72.28
82033;BME280;71595;52.180;4.512;2023-12-28T11:14:08;100984.47;;;11.03;71.98
82033;BME280;71595;52.180;4.512;2023-12-28T11:16:34;100963.28;;;11.07;71.84
82033;BME280;71595;52.180;4.512;2023-12-28T11:19:03;100963.19;;;11.03;72.32
82033;BME280;71595;52.180;4.512;2023-12-28T11:21:30;100958.91;;;11.06;71.96
82033;BME280;71595;52.180;4.512;2023-12-28T11:23:55;100969.72;;;10.99;72.57
82033;BME280;71595;52.180;4.512;2023-12-28T11:26:21;100951.75;;;10.92;73.16
82033;BME280;71595;52.180;4.512;2023-12-28T11:28:47;100952.25;;;10.86;73.20
82033;BME280;71595;52.180;4.512;2023-12-28T11:31:18;100950.56;;;10.93;72.74
82033;BME280;71595;52.180;4.512;2023-12-28T11:36:10;100940.75;;;10.84;73.63
82033;BME280;71595;52.180;4.512;2023-12-28T11:38:38;100944.81;;;10.86;74.03
82033;BME280;71595;52.180;4.512;2023-12-28T11:41:04;100929.03;;;10.87;73.79
82033;BME280;71595;52.180;4.512;2023-12-28T11:43:29;100945.81;;;10.82;73.76
82033;BME280;71595;52.180;4.512;2023-12-28T11:46:00;100937.66;;;10.85;73.16
82033;BME280;71595;52.180;4.512;2023-12-28T11:48:26;100937.66;;;10.85;73.45
82033;BME280;71595;52.180;4.512;2023-12-28T11:50:59;100939.28;;;10.86;73.35
82033;BME280;71595;52.180;4.512;2023-12-28T11:53:25;100926.59;;;10.85;73.66
82033;BME280;71595;52.180;4.512;2023-12-28T11:55:51;100934.44;;;10.83;73.07
82033;BME280;71595;52.180;4.512;2023-12-28T11:58:17;100934.09;;;10.85;72.98
82033;BME280;71595;52.180;4.512;2023-12-28T12:00:43;100920.84;;;10.90;72.56
82033;BME280;71595;52.180;4.512;2023-12-28T12:03:12;100923.63;;;10.90;72.96
82033;BME280;71595;52.180;4.512;2023-12-28T12:05:38;100926.19;;;10.95;72.34
82033;BME280;71595;52.180;4.512;2023-12-28T12:08:09;100926.66;;;10.97;72.58
82033;BME280;71595;52.180;4.512;2023-12-28T12:10:38;100912.81;;;10.97;72.85
82033;BME280;71595;52.180;4.512;2023-12-28T12:13:04;100922.94;;;10.93;72.65
82033;BME280;71595;52.180;4.512;2023-12-28T12:15:30;100917.69;;;11.01;72.08
82033;BME280;71595;52.180;4.512;2023-12-28T12:17:55;100909.72;;;10.99;72.10
82033;BME280;71595;52.180;4.512;2023-12-28T12:20:20;100916.06;;;11.00;72.49
82033;BME280;71595;52.180;4.512;2023-12-28T12:22:46;100911.47;;;11.04;71.38
82033;BME280;71595;52.180;4.512;2023-12-28T12:25:12;100920.78;;;10.99;71.56
82033;BME280;71595;52.180;4.512;2023-12-28T12:27:37;100914.00;;;11.09;71.27
82033;BME280;71595;52.180;4.512;2023-12-28T12:30:06;100897.19;;;11.02;71.55
82033;BME280;71595;52.180;4.512;2023-12-28T12:32:32;100892.56;;;11.06;71.36
82033;BME280;71595;52.180;4.512;2023-12-28T12:34:58;100903.19;;;11.04;71.81
82033;BME280;71595;52.180;4.512;2023-12-28T12:37:23;100895.34;;;11.06;71.20
82033;BME280;71595;52.180;4.512;2023-12-28T12:39:49;100895.13;;;11.11;70.68
82033;BME280;71595;52.180;4.512;2023-12-28T12:42:15;100897.44;;;11.09;71.06
82033;BME280;71595;52.180;4.512;2023-12-28T12:44:42;100891.09;;;11.08;70.93
82033;BME280;71595;52.180;4.512;2023-12-28T12:47:07;100880.97;;;11.12;70.83
82033;BME280;71595;52.180;4.512;2023-12-28T12:49:32;100891.91;;;11.09;70.77
82033;BME280;71595;52.180;4.512;2023-12-28T12:51:58;100888.00;;;11.10;70.91
82033;BME280;71595;52.180;4.512;2023-12-28T12:54:23;100891.91;;;11.09;70.48